createdAt,value
2022-10-06T00:00:04.498Z,4.93
2022-10-06T00:02:34.125Z,4.53
2022-10-06T00:05:00.685Z,4.13
2022-10-06T00:07:27.246Z,4.07
2022-10-06T00:09:53.764Z,4.57
2022-10-06T00:12:20.328Z,4.60
2022-10-06T00:14:48.225Z,3.80
2022-10-06T00:17:14.775Z,4.55
2022-10-06T00:19:41.317Z,4.30
2022-10-06T00:22:07.875Z,4.78
2022-10-06T00:24:34.399Z,4.07
2022-10-06T00:27:01.353Z,4.80
2022-10-06T00:29:27.924Z,4.45
2022-10-06T00:31:55.848Z,4.38
2022-10-06T00:34:22.440Z,4.55
2022-10-06T00:36:49.018Z,5.05
2022-10-06T00:39:15.522Z,4.68
2022-10-06T00:41:42.063Z,4.47
2022-10-06T00:44:08.603Z,4.72
2022-10-06T00:46:40.163Z,4.20
2022-10-06T00:49:14.229Z,4.70
2022-10-06T00:51:44.516Z,4.13
2022-10-06T00:54:11.647Z,5.10
2022-10-06T00:56:38.851Z,4.90
2022-10-06T00:59:05.867Z,4.95
2022-10-06T01:01:33.644Z,4.75
2022-10-06T01:04:06.629Z,4.45
2022-10-06T01:06:42.736Z,4.65
2022-10-06T01:09:09.300Z,4.53
2022-10-06T01:11:36.150Z,5.20
2022-10-06T01:14:02.689Z,4.80
2022-10-06T01:16:32.089Z,4.53
2022-10-06T01:18:59.036Z,4.60
2022-10-06T01:21:31.136Z,4.90
2022-10-06T01:24:01.088Z,8.63
2022-10-06T01:26:29.098Z,4.63
2022-10-06T01:28:55.780Z,4.85
2022-10-06T01:31:22.897Z,5.60
2022-10-06T01:33:51.751Z,5.00
2022-10-06T01:36:18.594Z,4.57
2022-10-06T01:38:45.115Z,4.82
2022-10-06T01:41:13.164Z,4.90
2022-10-06T01:43:39.784Z,4.53
2022-10-06T01:46:06.389Z,5.00
2022-10-06T01:48:35.115Z,5.50
2022-10-06T01:51:01.685Z,5.10
2022-10-06T01:53:28.200Z,4.75
2022-10-06T01:55:57.886Z,4.85
2022-10-06T01:58:26.056Z,4.85
2022-10-06T02:00:52.956Z,5.88
2022-10-06T02:03:19.515Z,5.28
2022-10-06T02:05:46.058Z,5.10
2022-10-06T02:08:12.588Z,5.50
2022-10-06T02:10:39.124Z,5.32
2022-10-06T02:13:05.687Z,5.30
2022-10-06T02:15:33.593Z,5.57
2022-10-06T02:18:00.189Z,3.95
2022-10-06T02:20:26.889Z,4.75
2022-10-06T02:22:53.399Z,4.85
2022-10-06T02:25:20.048Z,4.95
2022-10-06T02:27:46.637Z,4.88
2022-10-06T02:30:13.315Z,4.60
2022-10-06T02:32:42.229Z,5.45
2022-10-06T02:35:09.745Z,5.85
2022-10-06T02:37:36.264Z,5.22
2022-10-06T02:40:02.836Z,4.75
2022-10-06T02:42:29.374Z,5.32
2022-10-06T02:44:55.889Z,5.35
2022-10-06T02:47:22.434Z,4.32
2022-10-06T02:49:50.354Z,5.22
2022-10-06T02:52:17.101Z,5.13
2022-10-06T02:54:43.636Z,4.93
2022-10-06T02:57:10.175Z,4.93
2022-10-06T02:59:36.706Z,4.80
2022-10-06T03:02:03.725Z,5.50
2022-10-06T03:04:30.321Z,4.97
2022-10-06T03:06:58.277Z,4.90
2022-10-06T03:09:24.993Z,5.20
2022-10-06T03:11:51.676Z,6.53
2022-10-06T03:14:21.812Z,7.10
2022-10-06T03:16:49.057Z,5.90
2022-10-06T03:19:15.663Z,5.53
2022-10-06T03:21:43.608Z,5.20
2022-10-06T03:24:12.152Z,15.60
2022-10-06T03:26:40.466Z,22.70
2022-10-06T03:29:11.295Z,8.15
2022-10-06T03:31:38.854Z,14.95
2022-10-06T03:34:05.834Z,68.57
2022-10-06T03:36:33.881Z,31.77
2022-10-06T03:39:01.294Z,8.65
2022-10-06T03:41:31.629Z,15.65
2022-10-06T03:43:59.614Z,17.20
2022-10-06T03:46:28.662Z,9.90
2022-10-06T03:48:55.622Z,32.42
2022-10-06T03:51:24.840Z,17.60
2022-10-06T03:53:51.950Z,11.85
2022-10-06T03:56:20.465Z,9.50
2022-10-06T03:58:50.920Z,8.13
2022-10-06T04:01:25.020Z,10.57
2022-10-06T04:03:53.771Z,9.25
2022-10-06T04:06:20.480Z,7.05
2022-10-06T04:08:49.654Z,8.52
2022-10-06T04:11:18.520Z,16.17
2022-10-06T04:13:45.249Z,7.13
2022-10-06T04:16:15.656Z,22.73
2022-10-06T04:18:43.625Z,8.75
2022-10-06T04:21:10.556Z,7.18
2022-10-06T04:23:37.066Z,7.07
2022-10-06T04:26:06.027Z,7.40
2022-10-06T04:28:33.651Z,6.72
2022-10-06T04:31:01.627Z,6.03
2022-10-06T04:33:29.664Z,7.30
2022-10-06T04:35:57.400Z,6.78
2022-10-06T04:38:24.013Z,6.80
2022-10-06T04:40:50.587Z,6.50
2022-10-06T04:43:17.149Z,6.10
2022-10-06T04:45:43.714Z,7.10
2022-10-06T04:48:10.346Z,6.22
2022-10-06T04:50:38.237Z,6.07
2022-10-06T04:53:04.837Z,6.85
2022-10-06T04:55:31.355Z,6.47
2022-10-06T04:57:57.919Z,6.07
2022-10-06T05:00:24.469Z,6.03
2022-10-06T05:02:53.091Z,7.45
2022-10-06T05:05:19.620Z,6.65
2022-10-06T05:07:47.560Z,6.88
2022-10-06T05:10:14.244Z,6.28
2022-10-06T05:12:40.796Z,6.85
2022-10-06T05:15:08.630Z,6.72
2022-10-06T05:17:35.195Z,6.07
2022-10-06T05:20:01.767Z,6.47
2022-10-06T05:22:28.292Z,6.03
2022-10-06T05:24:56.160Z,6.25
2022-10-06T05:27:22.729Z,5.78
2022-10-06T05:29:49.252Z,5.55
2022-10-06T05:32:15.783Z,6.30
2022-10-06T05:34:42.306Z,5.90
2022-10-06T05:37:08.834Z,7.65
2022-10-06T05:39:35.363Z,6.63
2022-10-06T05:42:03.403Z,6.13
2022-10-06T05:44:29.921Z,5.30
2022-10-06T05:46:56.457Z,5.90
2022-10-06T05:49:22.959Z,6.35
2022-10-06T05:51:49.829Z,5.97
2022-10-06T05:54:16.363Z,5.55
2022-10-06T05:56:42.895Z,5.85
2022-10-06T05:59:10.798Z,5.50
2022-10-06T06:01:39.189Z,5.65
2022-10-06T06:04:07.646Z,5.47
2022-10-06T06:06:36.071Z,5.90
2022-10-06T06:09:05.303Z,6.38
2022-10-06T06:11:31.856Z,6.00
2022-10-06T06:13:59.607Z,7.50
2022-10-06T06:16:29.260Z,5.75
2022-10-06T06:18:55.879Z,6.18
2022-10-06T06:21:22.783Z,6.30
2022-10-06T06:23:49.786Z,7.18
2022-10-06T06:26:18.537Z,10.18
2022-10-06T06:28:45.778Z,10.95
2022-10-06T06:31:19.049Z,11.30
2022-10-06T06:33:50.401Z,11.18
2022-10-06T06:36:19.478Z,12.00
2022-10-06T06:38:47.622Z,10.07
2022-10-06T06:41:16.075Z,10.00
2022-10-06T06:43:42.751Z,10.57
2022-10-06T06:46:09.721Z,12.00
2022-10-06T06:48:36.318Z,10.98
2022-10-06T06:51:04.908Z,11.40
2022-10-06T06:53:31.840Z,10.48
2022-10-06T06:55:58.344Z,11.25
2022-10-06T06:58:25.335Z,11.18
2022-10-06T07:00:52.002Z,12.32
2022-10-06T07:03:32.939Z,12.95
2022-10-06T07:06:11.783Z,13.18
2022-10-06T07:08:40.588Z,10.15
2022-10-06T07:11:14.852Z,10.77
2022-10-06T07:13:41.974Z,11.25
2022-10-06T07:16:10.967Z,9.93
2022-10-06T07:18:37.572Z,8.85
2022-10-06T07:21:04.128Z,9.82
2022-10-06T07:23:32.084Z,9.20
2022-10-06T07:25:58.593Z,9.18
2022-10-06T07:28:25.176Z,9.35
2022-10-06T07:30:51.732Z,8.93
2022-10-06T07:33:18.425Z,8.88
2022-10-06T07:35:44.934Z,8.38
2022-10-06T07:38:11.456Z,9.07
2022-10-06T07:40:46.368Z,8.80
2022-10-06T07:43:22.476Z,9.88
2022-10-06T07:45:49.080Z,10.50
2022-10-06T07:48:17.205Z,9.63
2022-10-06T07:50:44.916Z,9.82
2022-10-06T07:53:11.593Z,8.65
2022-10-06T07:55:42.231Z,8.98
2022-10-06T07:58:12.199Z,9.27
2022-10-06T08:00:38.759Z,8.00
2022-10-06T08:03:05.397Z,8.07
2022-10-06T08:05:31.944Z,7.90
2022-10-06T08:07:58.612Z,7.30
2022-10-06T08:10:25.257Z,7.35
2022-10-06T08:12:53.213Z,7.05
2022-10-06T08:15:19.807Z,6.47
2022-10-06T08:17:46.356Z,6.57
2022-10-06T08:20:13.572Z,7.07
2022-10-06T08:22:40.580Z,6.28
2022-10-06T08:25:08.724Z,6.07
2022-10-06T08:27:36.650Z,8.23
2022-10-06T08:30:05.855Z,6.07
2022-10-06T08:32:33.084Z,5.25
2022-10-06T08:34:59.620Z,6.15
2022-10-06T08:37:26.160Z,5.88
2022-10-06T08:39:53.812Z,5.63
2022-10-06T08:42:28.407Z,5.90
2022-10-06T08:45:05.445Z,5.57
2022-10-06T08:47:35.522Z,5.63
2022-10-06T08:50:04.921Z,5.45
2022-10-06T08:52:44.603Z,5.18
2022-10-06T08:55:24.752Z,4.57
2022-10-06T08:58:04.100Z,4.40
2022-10-06T09:00:32.671Z,4.97
2022-10-06T09:03:00.559Z,5.07
2022-10-06T09:05:27.896Z,4.82
2022-10-06T09:08:10.322Z,5.20
2022-10-06T09:10:44.234Z,5.28
2022-10-06T09:13:20.967Z,5.35
2022-10-06T09:15:55.542Z,5.13
2022-10-06T09:18:49.445Z,4.85
2022-10-06T09:21:17.901Z,4.78
2022-10-06T09:23:50.238Z,5.00
2022-10-06T09:26:19.096Z,5.47
2022-10-06T09:28:45.690Z,4.68
2022-10-06T09:31:22.188Z,4.70
2022-10-06T09:33:50.957Z,5.30
2022-10-06T09:36:17.577Z,4.97
2022-10-06T09:38:50.335Z,4.40
2022-10-06T09:41:16.924Z,4.88
2022-10-06T09:43:52.346Z,5.15
2022-10-06T09:46:23.540Z,5.28
2022-10-06T09:49:06.207Z,4.68
2022-10-06T09:51:33.188Z,4.38
2022-10-06T09:54:08.224Z,5.47
2022-10-06T09:56:34.786Z,5.70
2022-10-06T09:59:01.381Z,5.53
2022-10-06T10:01:30.535Z,5.90
2022-10-06T10:04:19.534Z,5.45
2022-10-06T10:06:46.183Z,4.80
2022-10-06T10:09:29.628Z,5.00
2022-10-06T10:12:11.357Z,5.60
2022-10-06T10:14:38.413Z,5.35
2022-10-06T10:17:13.548Z,4.97
2022-10-06T10:19:40.173Z,5.07
2022-10-06T10:22:16.694Z,4.70
2022-10-06T10:24:52.226Z,5.30
2022-10-06T10:27:22.709Z,4.80
2022-10-06T10:29:59.067Z,4.63
2022-10-06T10:32:56.597Z,4.85
2022-10-06T10:35:27.231Z,4.55
2022-10-06T10:37:59.910Z,4.63
2022-10-06T10:40:37.233Z,4.53
2022-10-06T10:43:14.064Z,4.65
2022-10-06T10:45:45.909Z,4.30
2022-10-06T10:48:20.919Z,4.43
2022-10-06T10:50:56.172Z,4.53
2022-10-06T10:53:28.979Z,4.15
2022-10-06T10:55:56.650Z,4.20
2022-10-06T10:58:30.477Z,4.22
2022-10-06T11:01:02.940Z,4.10
2022-10-06T11:03:31.195Z,4.90
2022-10-06T11:06:17.843Z,4.97
2022-10-06T11:08:50.017Z,4.05
2022-10-06T11:11:28.363Z,4.55
2022-10-06T11:13:59.699Z,4.15
2022-10-06T11:16:40.825Z,4.25
2022-10-06T11:19:22.796Z,3.93
2022-10-06T11:24:30.715Z,3.40
2022-10-06T11:27:15.566Z,3.58
2022-10-06T11:29:54.245Z,3.33
2022-10-06T11:32:27.131Z,3.05
2022-10-06T11:34:55.676Z,3.30
2022-10-06T11:37:35.683Z,2.97
2022-10-06T11:40:24.575Z,2.80
2022-10-06T11:43:00.583Z,3.10
2022-10-06T11:45:33.384Z,2.88
2022-10-06T11:48:18.602Z,3.47
2022-10-06T11:50:46.561Z,2.85
2022-10-06T11:53:39.653Z,2.97
2022-10-06T11:56:37.415Z,3.03
2022-10-06T11:59:25.893Z,3.08
2022-10-06T12:01:57.145Z,3.20
2022-10-06T12:04:24.824Z,3.03
2022-10-06T12:07:01.387Z,2.83
2022-10-06T12:09:51.721Z,2.88
2022-10-06T12:13:05.712Z,2.30
2022-10-06T12:17:06.095Z,2.28
2022-10-06T12:19:06.276Z,1.58
2022-10-06T12:21:42.301Z,1.67
2022-10-06T12:24:25.151Z,1.92
2022-10-06T12:26:59.548Z,1.50
2022-10-06T12:29:39.438Z,1.40
2022-10-06T12:32:17.675Z,1.30
2022-10-06T12:34:57.652Z,1.60
2022-10-06T12:37:40.465Z,1.67
2022-10-06T12:40:44.318Z,1.20
2022-10-06T12:43:55.093Z,1.80
2022-10-06T12:46:32.843Z,1.40
2022-10-06T12:49:14.304Z,1.63
2022-10-06T12:51:42.435Z,1.50
2022-10-06T12:54:16.452Z,1.20
2022-10-06T12:56:44.067Z,1.40
2022-10-06T12:59:19.586Z,1.60
2022-10-06T13:01:46.602Z,1.45
2022-10-06T13:04:32.365Z,1.63
2022-10-06T13:06:59.023Z,1.20
2022-10-06T13:09:25.702Z,1.10
2022-10-06T13:11:52.269Z,1.27
2022-10-06T13:14:20.185Z,1.40
2022-10-06T13:16:48.300Z,1.60
2022-10-06T13:19:17.720Z,1.50
2022-10-06T13:21:45.092Z,1.20
2022-10-06T13:24:13.302Z,0.80
2022-10-06T13:26:41.304Z,1.20
2022-10-06T13:29:18.466Z,1.10
2022-10-06T13:31:52.860Z,1.27
2022-10-06T13:34:27.571Z,1.48
2022-10-06T13:36:54.679Z,1.08
2022-10-06T13:39:23.356Z,1.30
2022-10-06T13:41:52.333Z,1.42
2022-10-06T13:44:28.926Z,1.23
2022-10-06T13:47:00.303Z,1.20
2022-10-06T13:49:29.257Z,1.48
2022-10-06T13:51:59.383Z,1.33
2022-10-06T13:54:28.456Z,1.17
2022-10-06T13:56:55.110Z,1.40
2022-10-06T13:59:35.235Z,1.42
2022-10-06T14:02:22.306Z,1.13
2022-10-06T14:05:22.974Z,1.10
2022-10-06T14:07:50.461Z,1.40
2022-10-06T14:10:18.629Z,1.00
2022-10-06T14:12:46.021Z,1.10
2022-10-06T14:15:18.700Z,1.23
2022-10-06T14:17:53.468Z,1.48
2022-10-06T14:20:44.852Z,1.60
2022-10-06T14:23:43.351Z,1.45
2022-10-06T14:26:11.291Z,1.40
2022-10-06T14:28:38.144Z,1.65
2022-10-06T14:31:04.933Z,1.50
2022-10-06T14:33:32.899Z,1.08
2022-10-06T14:35:59.672Z,1.50
2022-10-06T14:38:26.234Z,1.48
2022-10-06T14:40:52.796Z,1.40
2022-10-06T14:43:19.365Z,1.33
2022-10-06T14:45:46.119Z,1.40
2022-10-06T14:48:13.681Z,1.23
2022-10-06T14:50:41.961Z,1.40
2022-10-06T14:53:10.416Z,1.75
2022-10-06T14:55:37.360Z,1.40
2022-10-06T14:58:03.911Z,1.50
2022-10-06T15:00:30.488Z,1.42
2022-10-06T15:02:57.162Z,1.50
2022-10-06T15:05:24.064Z,1.60
2022-10-06T15:07:52.025Z,1.40
2022-10-06T15:10:18.674Z,1.73
2022-10-06T15:12:45.271Z,1.75
2022-10-06T15:15:11.836Z,1.50
2022-10-06T15:17:38.446Z,1.50
2022-10-06T15:20:05.751Z,1.40
2022-10-06T15:22:32.323Z,1.67
2022-10-06T15:25:00.262Z,1.42
2022-10-06T15:27:26.910Z,1.65
2022-10-06T15:29:53.630Z,1.55
2022-10-06T15:32:20.244Z,1.95
2022-10-06T15:34:46.802Z,1.45
2022-10-06T15:37:13.453Z,1.77
2022-10-06T15:39:40.022Z,2.58
2022-10-06T15:42:08.303Z,2.28
2022-10-06T15:44:35.365Z,1.95
2022-10-06T15:47:05.415Z,2.40
2022-10-06T15:49:31.983Z,3.78
2022-10-06T15:51:59.962Z,2.20
2022-10-06T15:54:28.557Z,2.10
2022-10-06T15:56:56.700Z,1.48
2022-10-06T15:59:25.800Z,1.63
2022-10-06T16:01:53.175Z,3.33
2022-10-06T16:04:22.447Z,2.60
2022-10-06T16:06:49.167Z,2.67
2022-10-06T16:09:17.720Z,1.50
2022-10-06T16:11:45.074Z,1.50
2022-10-06T16:14:11.666Z,1.77
2022-10-06T16:16:43.494Z,2.53
2022-10-06T16:19:10.838Z,1.80
2022-10-06T16:21:37.493Z,1.88
2022-10-06T16:24:04.219Z,1.73
2022-10-06T16:26:30.870Z,1.70
2022-10-06T16:28:57.663Z,1.90
2022-10-06T16:31:24.625Z,1.48
2022-10-06T16:33:52.898Z,1.88
2022-10-06T16:36:19.987Z,1.40
2022-10-06T16:38:50.009Z,1.70
2022-10-06T16:41:16.960Z,2.00
2022-10-06T16:43:45.590Z,1.55
2022-10-06T16:46:14.680Z,1.40
2022-10-06T16:48:43.666Z,1.52
2022-10-06T16:51:13.797Z,1.35
2022-10-06T16:53:41.741Z,1.75
2022-10-06T16:56:11.231Z,2.97
2022-10-06T16:58:39.478Z,2.03
2022-10-06T17:01:06.339Z,2.10
2022-10-06T17:03:33.071Z,2.38
2022-10-06T17:06:04.862Z,2.22
2022-10-06T17:08:32.854Z,2.53
2022-10-06T17:11:05.073Z,1.75
2022-10-06T17:13:32.012Z,1.92
2022-10-06T17:16:01.566Z,1.75
2022-10-06T17:18:28.202Z,2.20
2022-10-06T17:20:56.480Z,1.60
2022-10-06T17:23:23.168Z,1.98
2022-10-06T17:26:12.397Z,2.28
2022-10-06T17:28:39.027Z,2.38
2022-10-06T17:31:06.031Z,1.85
2022-10-06T17:33:35.016Z,2.92
2022-10-06T17:36:06.787Z,3.22
2022-10-06T17:38:34.417Z,1.90
2022-10-06T17:41:02.968Z,1.90
2022-10-06T17:43:29.526Z,1.90
2022-10-06T17:45:56.253Z,1.80
2022-10-06T17:48:25.962Z,1.83
2022-10-06T17:50:59.172Z,1.90
2022-10-06T17:53:25.815Z,2.13
2022-10-06T17:55:52.563Z,1.65
2022-10-06T17:58:20.498Z,2.28
2022-10-06T18:00:47.117Z,1.77
2022-10-06T18:03:13.794Z,2.50
2022-10-06T18:05:40.359Z,1.80
2022-10-06T18:08:09.644Z,2.00
2022-10-06T18:10:36.180Z,1.58
2022-10-06T18:13:02.770Z,1.98
2022-10-06T18:15:34.819Z,2.10
2022-10-06T18:18:01.398Z,1.80
2022-10-06T18:20:27.971Z,2.10
2022-10-06T18:22:54.532Z,2.45
2022-10-06T18:25:26.526Z,1.60
2022-10-06T18:27:53.440Z,1.83
2022-10-06T18:30:20.016Z,1.90
2022-10-06T18:38:21.021Z,1.80
2022-10-06T18:40:54.084Z,2.28
2022-10-06T18:43:20.769Z,1.67
2022-10-06T18:45:47.509Z,1.77
2022-10-06T18:48:15.488Z,1.88
2022-10-06T18:50:42.066Z,1.73
2022-10-06T18:53:08.602Z,5.43
2022-10-06T18:55:35.275Z,2.58
2022-10-06T18:58:02.100Z,1.60
2022-10-06T19:00:28.746Z,1.90
2022-10-06T19:02:55.328Z,2.10
2022-10-06T19:05:23.547Z,1.80
2022-10-06T19:07:52.770Z,1.90
2022-10-06T19:10:19.342Z,2.00
2022-10-06T19:12:45.878Z,1.58
2022-10-06T19:15:15.381Z,1.60
2022-10-06T19:17:44.799Z,1.90
2022-10-06T19:20:12.319Z,1.98
2022-10-06T19:22:40.253Z,1.85
2022-10-06T19:25:07.401Z,1.85
2022-10-06T19:27:35.858Z,1.95
2022-10-06T19:30:02.420Z,1.70
2022-10-06T19:32:30.903Z,1.70
2022-10-06T19:34:57.481Z,1.73
2022-10-06T19:37:24.283Z,1.70
2022-10-06T19:39:52.473Z,1.85
2022-10-06T19:42:19.690Z,1.58
2022-10-06T19:44:46.312Z,2.20
2022-10-06T19:47:14.912Z,1.90
2022-10-06T19:49:42.523Z,3.75
2022-10-06T19:52:10.853Z,1.90
2022-10-06T19:54:37.418Z,1.80
2022-10-06T19:57:05.934Z,1.77
2022-10-06T19:59:33.100Z,1.88
2022-10-06T20:01:59.661Z,2.08
2022-10-06T20:04:26.311Z,2.63
2022-10-06T20:06:53.198Z,2.05
2022-10-06T20:09:21.555Z,2.03
2022-10-06T20:11:49.696Z,2.25
2022-10-06T20:14:20.952Z,2.30
2022-10-06T20:16:49.167Z,1.95
2022-10-06T20:19:15.957Z,1.70
2022-10-06T20:21:42.698Z,2.03
2022-10-06T20:24:12.643Z,2.30
2022-10-06T20:26:41.134Z,2.10
2022-10-06T20:29:10.105Z,2.28
2022-10-06T20:31:39.880Z,2.30
2022-10-06T20:34:09.285Z,1.75
2022-10-06T20:36:36.823Z,2.08
2022-10-06T20:39:04.068Z,2.20
2022-10-06T20:41:31.243Z,1.90
2022-10-06T20:43:58.489Z,2.17
2022-10-06T20:46:26.262Z,1.70
2022-10-06T20:48:54.190Z,1.77
2022-10-06T20:51:25.471Z,2.10
2022-10-06T20:53:54.183Z,2.20
2022-10-06T20:56:20.738Z,1.90
2022-10-06T20:58:47.288Z,2.28
2022-10-06T21:01:14.311Z,1.70
2022-10-06T21:03:45.264Z,2.05
2022-10-06T21:06:13.751Z,1.60
2022-10-06T21:08:41.065Z,1.77
2022-10-06T21:11:07.807Z,1.77
2022-10-06T21:13:34.521Z,2.42
2022-10-06T21:16:01.762Z,2.10
2022-10-06T21:18:28.658Z,2.20
2022-10-06T21:20:55.869Z,1.80
2022-10-06T21:23:23.961Z,2.17
2022-10-06T21:25:50.667Z,2.30
2022-10-06T21:28:17.454Z,2.20
2022-10-06T21:30:44.761Z,2.13
2022-10-06T21:33:11.708Z,2.05
2022-10-06T21:35:38.491Z,2.15
2022-10-06T21:38:05.214Z,2.15
2022-10-06T21:40:35.617Z,2.13
2022-10-06T21:43:02.349Z,2.38
2022-10-06T21:45:32.918Z,2.33
2022-10-06T21:47:59.918Z,2.38
2022-10-06T21:50:26.633Z,2.45
2022-10-06T21:52:53.332Z,1.90
2022-10-06T21:55:20.033Z,2.30
2022-10-06T21:57:48.176Z,2.35
2022-10-06T22:00:15.160Z,2.45
2022-10-06T22:02:41.926Z,2.35
2022-10-06T22:05:09.040Z,1.95
2022-10-06T22:07:35.834Z,2.22
2022-10-06T22:10:02.609Z,2.38
2022-10-06T22:12:29.481Z,2.40
2022-10-06T22:14:57.623Z,2.83
2022-10-06T22:17:24.459Z,2.58
2022-10-06T22:19:51.169Z,3.20
2022-10-06T22:22:17.947Z,2.42
2022-10-06T22:24:44.671Z,2.45
2022-10-06T22:27:11.376Z,2.45
2022-10-06T22:29:38.073Z,2.45
2022-10-06T22:32:06.154Z,2.50
2022-10-06T22:34:32.848Z,2.67
2022-10-06T22:36:59.572Z,2.55
2022-10-06T22:39:26.663Z,5.85
2022-10-06T22:41:53.409Z,5.03
2022-10-06T22:44:20.108Z,2.70
2022-10-06T22:46:46.966Z,2.53
2022-10-06T22:49:15.149Z,2.47
2022-10-06T22:51:41.964Z,2.60
2022-10-06T22:54:15.710Z,2.65
2022-10-06T22:56:42.444Z,2.30
2022-10-06T22:59:09.153Z,2.65
2022-10-06T23:01:35.882Z,2.88
2022-10-06T23:04:02.584Z,2.80
2022-10-06T23:06:30.690Z,2.30
2022-10-06T23:08:57.623Z,2.17
2022-10-06T23:11:24.363Z,2.80
2022-10-06T23:13:51.092Z,3.35
2022-10-06T23:16:19.448Z,2.50
2022-10-06T23:18:47.000Z,2.90
2022-10-06T23:21:15.571Z,2.53
2022-10-06T23:23:43.661Z,2.30
2022-10-06T23:26:12.367Z,2.10
2022-10-06T23:28:39.633Z,2.70
2022-10-06T23:31:08.785Z,2.15
2022-10-06T23:33:35.904Z,2.20
2022-10-06T23:36:04.715Z,2.45
2022-10-06T23:38:31.610Z,2.63
2022-10-06T23:40:59.733Z,3.13
2022-10-06T23:43:26.508Z,2.30
2022-10-06T23:45:53.370Z,2.72
2022-10-06T23:48:20.141Z,2.83
2022-10-06T23:50:55.787Z,2.50
2022-10-06T23:53:22.525Z,2.60
2022-10-06T23:55:49.265Z,2.92
2022-10-06T23:58:17.455Z,2.50
